createdAt,value
2019-02-11T00:00:47.673Z,4.40
2019-02-11T00:03:20.300Z,4.40
2019-02-11T00:05:51.957Z,4.40
2019-02-11T00:08:23.827Z,4.40
2019-02-11T00:10:55.653Z,4.40
2019-02-11T00:13:27.154Z,4.40
2019-02-11T00:15:59.810Z,4.40
2019-02-11T00:18:31.111Z,4.40
2019-02-11T00:21:02.504Z,4.50
2019-02-11T00:23:34.572Z,4.50
2019-02-11T00:26:06.949Z,4.50
2019-02-11T00:28:38.546Z,4.60
2019-02-11T00:31:10.149Z,4.60
2019-02-11T00:33:42.025Z,4.60
2019-02-11T00:36:13.418Z,4.60
2019-02-11T00:38:45.083Z,4.60
2019-02-11T00:41:16.325Z,4.60
2019-02-11T00:43:48.027Z,4.60
2019-02-11T00:46:19.319Z,4.60
2019-02-11T00:48:51.316Z,4.60
2019-02-11T00:51:22.556Z,4.60
2019-02-11T00:53:54.328Z,4.60
2019-02-11T00:56:26.228Z,4.60
2019-02-11T00:58:58.244Z,4.50
2019-02-11T01:01:29.656Z,4.50
2019-02-11T01:04:01.575Z,4.50
2019-02-11T01:06:33.868Z,4.50
2019-02-11T01:09:06.026Z,4.50
2019-02-11T01:11:37.640Z,4.50
2019-02-11T01:14:09.419Z,4.50
2019-02-11T01:16:41.022Z,4.50
2019-02-11T01:19:12.540Z,4.50
2019-02-11T01:21:44.644Z,4.50
2019-02-11T01:24:16.306Z,4.50
2019-02-11T01:26:47.799Z,4.50
2019-02-11T01:29:19.867Z,4.50
2019-02-11T01:31:51.498Z,4.50
2019-02-11T01:34:23.662Z,4.50
2019-02-11T01:36:55.193Z,4.50
2019-02-11T01:39:27.076Z,4.50
2019-02-11T01:41:58.804Z,4.50
2019-02-11T01:44:30.072Z,4.40
2019-02-11T01:47:01.081Z,4.40
2019-02-11T01:49:32.892Z,4.40
2019-02-11T01:52:04.530Z,4.40
2019-02-11T01:54:36.475Z,4.40
2019-02-11T01:57:07.557Z,4.50
2019-02-11T01:59:39.189Z,4.50
2019-02-11T02:02:10.512Z,4.50
2019-02-11T02:04:41.850Z,4.50
2019-02-11T02:07:13.741Z,4.50
2019-02-11T02:09:45.069Z,4.50
2019-02-11T02:12:17.262Z,4.50
2019-02-11T02:14:49.432Z,4.50
2019-02-11T02:17:21.060Z,4.50
2019-02-11T02:19:52.684Z,4.50
2019-02-11T02:22:24.490Z,4.50
2019-02-11T02:24:56.250Z,4.50
2019-02-11T02:27:28.193Z,4.50
2019-02-11T02:29:59.193Z,4.40
2019-02-11T02:32:30.773Z,4.50
2019-02-11T02:35:02.259Z,4.50
2019-02-11T02:37:33.880Z,4.50
2019-02-11T02:40:05.534Z,4.60
2019-02-11T02:42:37.110Z,4.60
2019-02-11T02:45:09.482Z,4.50
2019-02-11T02:47:40.827Z,4.50
2019-02-11T02:50:13.886Z,4.60
2019-02-11T02:52:45.523Z,4.60
2019-02-11T02:55:16.784Z,4.60
2019-02-11T02:57:48.078Z,4.70
2019-02-11T03:00:19.992Z,4.60
2019-02-11T03:02:51.984Z,4.60
2019-02-11T03:05:23.727Z,4.60
2019-02-11T03:07:54.727Z,4.60
2019-02-11T03:10:26.049Z,4.70
2019-02-11T03:12:57.620Z,4.70
2019-02-11T03:15:28.888Z,4.70
2019-02-11T03:18:00.173Z,4.60
2019-02-11T03:20:31.788Z,4.50
2019-02-11T03:23:02.807Z,4.50
2019-02-11T03:25:33.872Z,4.40
2019-02-11T03:28:06.087Z,4.30
2019-02-11T03:30:38.474Z,4.30
2019-02-11T03:33:10.075Z,4.30
2019-02-11T03:35:41.868Z,4.30
2019-02-11T03:38:13.949Z,4.30
2019-02-11T03:40:44.946Z,4.30
2019-02-11T03:43:16.688Z,4.40
2019-02-11T03:45:47.661Z,4.40
2019-02-11T03:48:19.289Z,4.40
2019-02-11T03:50:50.554Z,4.40
2019-02-11T03:53:21.587Z,4.50
2019-02-11T03:55:53.318Z,4.50
2019-02-11T03:58:25.492Z,4.50
2019-02-11T04:00:57.105Z,4.50
2019-02-11T04:03:28.332Z,4.50
2019-02-11T04:05:59.669Z,4.50
2019-02-11T04:08:31.458Z,4.50
2019-02-11T04:11:03.150Z,4.50
2019-02-11T04:13:35.046Z,4.50
2019-02-11T04:16:06.563Z,4.50
2019-02-11T04:18:37.577Z,4.60
2019-02-11T04:21:09.697Z,4.60
2019-02-11T04:23:41.034Z,4.70
2019-02-11T04:26:12.683Z,4.70
2019-02-11T04:28:44.035Z,4.70
2019-02-11T04:31:15.027Z,4.80
2019-02-11T04:33:46.660Z,4.70
2019-02-11T04:36:18.292Z,4.70
2019-02-11T04:38:49.610Z,4.70
2019-02-11T04:41:21.314Z,4.70
2019-02-11T04:43:52.921Z,4.70
2019-02-11T04:46:24.812Z,4.70
2019-02-11T04:48:56.414Z,4.80
2019-02-11T04:51:28.199Z,4.80
2019-02-11T04:53:59.549Z,4.90
2019-02-11T04:56:30.798Z,4.90
2019-02-11T04:59:03.093Z,4.90
2019-02-11T05:01:34.131Z,4.90
2019-02-11T05:04:05.674Z,4.90
2019-02-11T05:06:36.757Z,4.90
2019-02-11T05:09:08.850Z,4.90
2019-02-11T05:11:40.490Z,4.90
2019-02-11T05:14:12.060Z,4.90
2019-02-11T05:16:43.337Z,4.90
2019-02-11T05:19:14.417Z,5.00
2019-02-11T05:21:45.701Z,4.90
2019-02-11T05:24:17.284Z,4.90
2019-02-11T05:26:49.461Z,4.90
2019-02-11T05:29:21.062Z,5.00
2019-02-11T05:31:52.627Z,5.00
2019-02-11T05:34:24.542Z,5.00
2019-02-11T05:36:56.139Z,5.00
2019-02-11T05:39:27.375Z,5.00
2019-02-11T05:41:59.218Z,5.00
2019-02-11T05:44:30.491Z,5.00
2019-02-11T05:47:02.046Z,5.00
2019-02-11T05:49:34.115Z,4.90
2019-02-11T05:52:05.913Z,4.90
2019-02-11T05:54:37.505Z,5.00
2019-02-11T05:57:09.107Z,5.00
2019-02-11T05:59:40.718Z,5.00
2019-02-11T06:02:13.658Z,4.90
2019-02-11T06:04:45.289Z,5.00
2019-02-11T06:07:16.613Z,5.00
2019-02-11T06:09:47.999Z,5.00
2019-02-11T06:12:19.780Z,4.90
2019-02-11T06:14:51.357Z,4.90
2019-02-11T06:17:22.929Z,4.90
2019-02-11T06:19:54.465Z,5.00
2019-02-11T06:22:25.960Z,4.90
2019-02-11T06:24:57.587Z,4.90
2019-02-11T06:27:29.984Z,4.90
2019-02-11T06:30:01.329Z,4.90
2019-02-11T06:32:32.684Z,4.90
2019-02-11T06:35:04.493Z,4.90
2019-02-11T06:37:35.842Z,4.90
2019-02-11T06:40:08.974Z,4.90
2019-02-11T06:42:40.534Z,4.90
2019-02-11T06:45:13.387Z,4.90
2019-02-11T06:47:44.838Z,4.90
2019-02-11T06:50:16.507Z,4.90
2019-02-11T06:52:47.833Z,4.90
2019-02-11T06:55:19.169Z,4.90
2019-02-11T06:57:50.448Z,4.90
2019-02-11T07:00:22.068Z,4.90
2019-02-11T07:02:53.338Z,4.90
2019-02-11T07:05:25.207Z,4.90
2019-02-11T07:07:56.541Z,4.90
2019-02-11T07:10:28.236Z,4.90
2019-02-11T07:12:59.560Z,4.90
2019-02-11T07:15:30.875Z,5.00
2019-02-11T07:18:02.148Z,5.00
2019-02-11T07:20:33.973Z,5.00
2019-02-11T07:23:05.551Z,5.00
2019-02-11T07:25:36.551Z,5.00
2019-02-11T07:28:07.849Z,5.00
2019-02-11T07:30:39.157Z,5.00
2019-02-11T07:33:10.183Z,5.10
2019-02-11T07:35:41.450Z,5.10
2019-02-11T07:38:12.992Z,5.20
2019-02-11T07:40:44.304Z,5.30
2019-02-11T07:43:30.925Z,5.40
2019-02-11T07:46:15.042Z,5.40
2019-02-11T07:48:46.684Z,5.50
2019-02-11T07:51:18.002Z,5.60
2019-02-11T07:53:50.354Z,5.70
2019-02-11T07:56:21.957Z,5.70
2019-02-11T07:58:53.482Z,5.70
2019-02-11T08:01:24.823Z,5.80
2019-02-11T08:03:56.081Z,5.80
2019-02-11T08:06:27.445Z,6.00
2019-02-11T08:08:58.767Z,6.00
2019-02-11T08:11:30.093Z,6.00
2019-02-11T08:14:01.623Z,6.00
2019-02-11T08:16:32.922Z,6.10
2019-02-11T08:19:04.531Z,6.10
2019-02-11T08:21:36.352Z,6.00
2019-02-11T08:24:08.005Z,6.00
2019-02-11T08:26:39.623Z,5.90
2019-02-11T08:29:11.186Z,5.80
2019-02-11T08:31:42.936Z,5.90
2019-02-11T08:34:16.205Z,6.10
2019-02-11T08:36:48.293Z,6.50
2019-02-11T08:39:19.573Z,6.60
2019-02-11T08:41:51.190Z,6.70
2019-02-11T08:44:22.882Z,6.60
2019-02-11T08:46:54.503Z,6.50
2019-02-11T08:49:26.602Z,6.40
2019-02-11T08:51:58.828Z,6.50
2019-02-11T08:54:30.120Z,6.80
2019-02-11T08:57:02.315Z,7.00
2019-02-11T08:59:34.125Z,6.90
2019-02-11T09:02:06.372Z,6.70
2019-02-11T09:04:37.947Z,6.60
2019-02-11T09:07:10.583Z,6.50
2019-02-11T09:09:41.860Z,6.40
2019-02-11T09:12:12.860Z,6.50
2019-02-11T09:14:44.861Z,6.60
2019-02-11T09:17:16.709Z,6.60
2019-02-11T09:19:47.973Z,6.70
2019-02-11T09:22:19.343Z,6.70
2019-02-11T09:24:50.789Z,6.60
2019-02-11T09:27:22.341Z,6.50
2019-02-11T09:29:54.219Z,6.40
2019-02-11T09:32:25.856Z,6.30
2019-02-11T09:34:57.750Z,6.30
2019-02-11T09:37:29.742Z,6.30
2019-02-11T09:40:01.337Z,6.40
2019-02-11T09:42:32.328Z,6.30
2019-02-11T09:45:03.993Z,6.40
2019-02-11T09:47:36.156Z,6.30
2019-02-11T09:50:14.993Z,6.20
2019-02-11T09:52:46.537Z,6.20
2019-02-11T09:55:24.519Z,6.50
2019-02-11T09:57:56.540Z,6.90
2019-02-11T10:00:28.488Z,7.10
2019-02-11T10:03:00.462Z,7.00
2019-02-11T10:05:32.092Z,7.00
2019-02-11T10:08:03.176Z,6.90
2019-02-11T10:10:34.987Z,6.80
2019-02-11T10:13:06.569Z,6.90
2019-02-11T10:15:38.197Z,6.90
2019-02-11T10:18:09.951Z,6.90
2019-02-11T10:20:41.334Z,6.70
2019-02-11T10:23:12.948Z,6.90
2019-02-11T10:25:44.716Z,7.30
2019-02-11T10:28:16.601Z,7.60
2019-02-11T10:30:48.248Z,7.70
2019-02-11T10:33:19.277Z,7.90
2019-02-11T10:35:51.607Z,8.10
2019-02-11T10:38:22.911Z,8.30
2019-02-11T10:40:54.372Z,8.60
2019-02-11T10:43:25.767Z,8.60
2019-02-11T10:45:57.646Z,8.40
2019-02-11T10:48:28.671Z,8.20
2019-02-11T10:51:00.556Z,7.90
2019-02-11T10:53:32.158Z,7.80
2019-02-11T10:56:03.676Z,7.80
2019-02-11T10:58:36.048Z,7.70
2019-02-11T11:01:08.382Z,7.50
2019-02-11T11:03:39.938Z,7.40
2019-02-11T11:06:11.389Z,7.40
2019-02-11T11:08:43.246Z,7.30
2019-02-11T11:11:14.808Z,7.20
2019-02-11T11:13:46.452Z,7.00
2019-02-11T11:16:18.319Z,6.80
2019-02-11T11:18:50.297Z,6.70
2019-02-11T11:21:22.788Z,6.70
2019-02-11T11:23:54.618Z,6.50
2019-02-11T11:26:26.384Z,6.40
2019-02-11T11:28:58.151Z,6.20
2019-02-11T11:31:30.253Z,6.10
2019-02-11T11:34:01.257Z,6.10
2019-02-11T11:36:32.601Z,6.20
2019-02-11T11:39:05.672Z,6.30
2019-02-11T11:41:37.019Z,6.30
2019-02-11T11:44:08.766Z,6.30
2019-02-11T11:46:46.961Z,6.30
2019-02-11T11:49:13.917Z,6.30
2019-02-11T11:51:45.505Z,6.30
2019-02-11T11:54:16.502Z,6.40
2019-02-11T11:56:48.609Z,6.50
2019-02-11T11:59:20.268Z,6.60
2019-02-11T12:01:52.266Z,6.70
2019-02-11T12:04:24.110Z,6.80
2019-02-11T12:06:55.711Z,6.80
2019-02-11T12:09:27.393Z,6.80
2019-02-11T12:11:59.030Z,6.80
2019-02-11T12:14:30.708Z,7.00
2019-02-11T12:17:03.317Z,7.10
2019-02-11T12:19:35.348Z,7.30
2019-02-11T12:22:12.269Z,7.40
2019-02-11T12:24:40.677Z,7.30
2019-02-11T12:27:11.760Z,7.20
2019-02-11T12:29:43.653Z,7.20
2019-02-11T12:32:15.167Z,7.10
2019-02-11T12:34:47.435Z,6.90
2019-02-11T12:37:19.760Z,6.80
2019-02-11T12:39:51.369Z,6.70
2019-02-11T12:42:22.997Z,6.60
2019-02-11T12:44:55.008Z,6.40
2019-02-11T12:47:26.062Z,6.30
2019-02-11T12:49:57.649Z,6.30
2019-02-11T12:52:29.530Z,6.30
2019-02-11T12:55:01.147Z,6.40
2019-02-11T12:57:32.403Z,6.60
2019-02-11T13:00:09.776Z,6.80
2019-02-11T13:02:42.127Z,7.00
2019-02-11T13:05:14.325Z,7.20
2019-02-11T13:07:45.989Z,7.30
2019-02-11T13:10:18.215Z,7.30
2019-02-11T13:12:49.638Z,7.10
2019-02-11T13:15:52.875Z,7.00
2019-02-11T13:17:55.513Z,6.80
2019-02-11T13:20:27.867Z,6.70
2019-02-11T13:23:00.436Z,6.70
2019-02-11T13:25:31.889Z,6.70
2019-02-11T13:28:03.246Z,6.70
2019-02-11T13:30:35.744Z,6.60
2019-02-11T13:33:07.577Z,6.60
2019-02-11T13:35:39.304Z,6.60
2019-02-11T13:38:10.648Z,6.70
2019-02-11T13:40:42.294Z,6.80
2019-02-11T13:43:14.083Z,6.80
2019-02-11T13:45:45.701Z,6.90
2019-02-11T13:48:17.424Z,6.90
2019-02-11T13:50:48.678Z,7.00
2019-02-11T13:53:20.210Z,7.20
2019-02-11T13:55:51.969Z,7.40
2019-02-11T13:58:23.641Z,7.50
2019-02-11T14:00:55.343Z,7.50
2019-02-11T14:03:26.704Z,7.40
2019-02-11T14:05:58.098Z,6.80
2019-02-11T14:08:29.892Z,5.90
2019-02-11T14:11:01.412Z,5.00
2019-02-11T14:13:33.079Z,4.30
2019-02-11T14:16:04.368Z,3.70
2019-02-11T14:18:36.241Z,3.40
2019-02-11T14:21:08.644Z,3.20
2019-02-11T14:23:40.566Z,3.10
2019-02-11T14:26:12.200Z,3.00
2019-02-11T14:28:43.541Z,3.10
2019-02-11T14:31:15.470Z,3.20
2019-02-11T14:33:46.771Z,3.30
2019-02-11T14:36:18.546Z,3.40
2019-02-11T14:38:50.791Z,3.40
2019-02-11T14:41:22.885Z,3.40
2019-02-11T14:43:54.725Z,3.50
2019-02-11T14:46:27.936Z,3.50
2019-02-11T14:48:59.572Z,3.60
2019-02-11T14:51:31.322Z,3.60
2019-02-11T14:54:02.893Z,3.70
2019-02-11T14:56:34.283Z,3.60
2019-02-11T14:59:05.881Z,3.70
2019-02-11T15:01:36.884Z,3.80
2019-02-11T15:04:08.311Z,3.90
2019-02-11T15:06:39.999Z,3.90
2019-02-11T15:09:11.874Z,4.00
2019-02-11T15:11:43.516Z,4.00
2019-02-11T15:14:14.863Z,4.00
2019-02-11T15:16:46.441Z,4.00
2019-02-11T15:19:17.677Z,4.10
2019-02-11T15:21:49.581Z,4.20
2019-02-11T15:24:21.498Z,4.30
2019-02-11T15:26:53.297Z,4.40
2019-02-11T15:29:25.372Z,4.40
2019-02-11T15:31:56.949Z,4.50
2019-02-11T15:34:28.215Z,4.60
2019-02-11T15:36:59.839Z,4.50
2019-02-11T15:39:31.389Z,4.50
2019-02-11T15:42:03.079Z,4.50
2019-02-11T15:44:34.729Z,4.50
2019-02-11T15:47:06.497Z,4.50
2019-02-11T15:49:38.320Z,4.40
2019-02-11T15:52:10.296Z,4.50
2019-02-11T15:54:41.895Z,4.50
2019-02-11T15:57:13.486Z,4.50
2019-02-11T15:59:44.889Z,4.60
2019-02-11T16:02:16.861Z,4.60
2019-02-11T16:04:49.166Z,4.60
2019-02-11T16:07:20.512Z,4.60
2019-02-11T16:09:51.760Z,4.60
2019-02-11T16:12:23.138Z,4.60
2019-02-11T16:14:54.653Z,4.50
2019-02-11T16:17:26.917Z,4.50
2019-02-11T16:19:58.472Z,4.50
2019-02-11T16:22:30.447Z,4.40
2019-02-11T16:25:02.097Z,4.50
2019-02-11T16:27:33.467Z,4.50
2019-02-11T16:30:05.963Z,4.50
2019-02-11T16:32:38.441Z,4.50
2019-02-11T16:35:11.175Z,4.50
2019-02-11T16:37:43.095Z,4.50
2019-02-11T16:40:23.750Z,4.50
2019-02-11T16:42:55.746Z,4.50
2019-02-11T16:45:27.344Z,4.50
2019-02-11T16:47:59.000Z,4.50
2019-02-11T16:50:31.372Z,4.50
2019-02-11T16:53:02.387Z,4.50
2019-02-11T16:55:33.666Z,4.40
2019-02-11T16:58:04.744Z,4.30
2019-02-11T17:00:36.007Z,4.30
2019-02-11T17:03:07.610Z,4.30
2019-02-11T17:05:39.218Z,4.20
2019-02-11T17:08:10.492Z,4.20
2019-02-11T17:10:41.843Z,4.20
2019-02-11T17:13:13.409Z,4.20
2019-02-11T17:15:44.706Z,4.20
2019-02-11T17:18:16.290Z,4.10
2019-02-11T17:20:47.296Z,4.10
2019-02-11T17:23:19.107Z,4.00
2019-02-11T17:25:50.702Z,4.10
2019-02-11T17:28:21.990Z,4.00
2019-02-11T17:30:53.621Z,4.00
2019-02-11T17:33:24.649Z,4.00
2019-02-11T17:35:56.458Z,3.90
2019-02-11T17:38:28.688Z,3.90
2019-02-11T17:41:00.478Z,3.90
2019-02-11T17:43:32.293Z,3.90
2019-02-11T17:46:03.854Z,3.80
2019-02-11T17:48:35.260Z,3.80
2019-02-11T17:51:06.965Z,3.80
2019-02-11T17:53:38.317Z,3.80
2019-02-11T17:56:10.097Z,3.70
2019-02-11T17:58:41.952Z,3.70
2019-02-11T18:01:13.812Z,3.70
2019-02-11T18:03:45.332Z,3.60
2019-02-11T18:06:17.158Z,3.70
2019-02-11T18:08:48.472Z,3.70
2019-02-11T18:11:20.014Z,3.70
2019-02-11T18:13:51.343Z,3.70
2019-02-11T18:16:22.421Z,3.70
2019-02-11T18:18:53.526Z,3.70
2019-02-11T18:21:25.180Z,3.70
2019-02-11T18:23:56.760Z,3.70
2019-02-11T18:26:28.284Z,3.60
2019-02-11T18:28:59.865Z,3.60
2019-02-11T18:31:31.618Z,3.60
2019-02-11T18:34:03.122Z,3.60
2019-02-11T18:36:35.034Z,3.60
2019-02-11T18:39:08.947Z,3.60
2019-02-11T18:41:40.658Z,3.60
2019-02-11T18:44:12.248Z,3.60
2019-02-11T18:46:43.256Z,3.60
2019-02-11T18:49:14.535Z,3.60
2019-02-11T18:51:46.943Z,3.60
2019-02-11T18:54:18.245Z,3.70
2019-02-11T18:56:49.772Z,3.70
2019-02-11T18:59:24.591Z,3.70
2019-02-11T19:01:54.452Z,3.80
2019-02-11T19:04:25.770Z,3.80
2019-02-11T19:06:57.120Z,3.80
2019-02-11T19:09:28.822Z,3.80
2019-02-11T19:12:00.826Z,3.80
2019-02-11T19:14:33.004Z,3.80
2019-02-11T19:17:04.886Z,3.80
2019-02-11T19:19:43.029Z,3.80
2019-02-11T19:22:09.540Z,3.80
2019-02-11T19:24:41.157Z,3.80
2019-02-11T19:27:12.733Z,3.80
2019-02-11T19:29:44.282Z,3.70
2019-02-11T19:32:15.279Z,3.70
2019-02-11T19:34:46.981Z,3.60
2019-02-11T19:37:19.215Z,3.60
2019-02-11T19:39:50.556Z,3.50
2019-02-11T19:42:21.558Z,3.40
2019-02-11T19:44:52.935Z,3.40
2019-02-11T19:47:24.445Z,3.40
2019-02-11T19:49:55.722Z,3.30
2019-02-11T19:52:27.344Z,3.30
2019-02-11T19:54:58.771Z,3.30
2019-02-11T19:57:30.018Z,3.30
2019-02-11T20:00:01.029Z,3.40
2019-02-11T20:02:32.281Z,3.40
2019-02-11T20:05:04.131Z,3.40
2019-02-11T20:07:37.264Z,3.50
2019-02-11T20:10:10.877Z,3.50
2019-02-11T20:12:42.293Z,3.60
2019-02-11T20:15:16.971Z,3.60
2019-02-11T20:17:48.971Z,3.60
2019-02-11T20:20:22.036Z,3.70
2019-02-11T20:22:53.786Z,3.70
2019-02-11T20:25:25.766Z,3.80
2019-02-11T20:27:57.345Z,3.80
2019-02-11T20:30:28.458Z,3.70
2019-02-11T20:33:00.059Z,3.80
2019-02-11T20:35:31.988Z,3.80
2019-02-11T20:38:03.676Z,3.80
2019-02-11T20:40:36.021Z,3.80
2019-02-11T20:43:07.289Z,3.80
2019-02-11T20:45:38.610Z,3.80
2019-02-11T20:48:09.993Z,3.80
2019-02-11T20:50:41.641Z,3.80
2019-02-11T20:53:13.217Z,3.80
2019-02-11T20:55:45.561Z,3.80
2019-02-11T20:58:16.564Z,3.80
2019-02-11T21:00:49.514Z,3.80
2019-02-11T21:03:21.328Z,3.70
2019-02-11T21:05:52.973Z,3.70
2019-02-11T21:08:24.782Z,3.60
2019-02-11T21:10:56.079Z,3.60
2019-02-11T21:13:27.318Z,3.60
2019-02-11T21:15:59.316Z,3.70
2019-02-11T21:18:30.884Z,3.70
2019-02-11T21:21:02.190Z,3.70
2019-02-11T21:23:34.057Z,3.80
2019-02-11T21:26:05.573Z,3.80
2019-02-11T21:28:37.480Z,3.80
2019-02-11T21:31:09.158Z,3.80
2019-02-11T21:33:40.481Z,3.80
2019-02-11T21:36:11.829Z,3.80
2019-02-11T21:38:43.793Z,3.80
2019-02-11T21:41:15.357Z,3.80
2019-02-11T21:43:47.250Z,3.80
2019-02-11T21:46:19.049Z,3.80
2019-02-11T21:48:50.049Z,3.70
2019-02-11T21:51:21.968Z,3.70
2019-02-11T21:53:53.323Z,3.70
2019-02-11T21:56:25.280Z,3.70
2019-02-11T21:58:56.578Z,3.70
2019-02-11T22:01:28.805Z,3.70
2019-02-11T22:04:00.350Z,3.70
2019-02-11T22:06:32.628Z,3.70
2019-02-11T22:09:04.597Z,3.80
2019-02-11T22:11:36.055Z,3.80
2019-02-11T22:14:07.049Z,3.80
2019-02-11T22:16:38.502Z,3.80
2019-02-11T22:19:09.948Z,3.80
2019-02-11T22:21:41.657Z,3.80
2019-02-11T22:24:13.119Z,3.90
2019-02-11T22:26:44.823Z,3.90
2019-02-11T22:29:16.052Z,3.90
2019-02-11T22:31:47.606Z,3.90
2019-02-11T22:34:19.067Z,3.90
2019-02-11T22:36:50.534Z,3.80
2019-02-11T22:39:22.013Z,3.80
2019-02-11T22:41:53.271Z,3.80
2019-02-11T22:44:24.501Z,3.70
2019-02-11T22:46:56.429Z,3.60
2019-02-11T22:49:28.164Z,3.70
2019-02-11T22:51:59.405Z,3.50
2019-02-11T22:54:30.626Z,3.50
2019-02-11T22:57:02.565Z,3.50
2019-02-11T22:59:34.286Z,3.50
2019-02-11T23:02:06.186Z,3.50
2019-02-11T23:04:37.628Z,3.50
2019-02-11T23:07:09.360Z,3.60
2019-02-11T23:09:40.819Z,3.60
2019-02-11T23:12:12.142Z,3.60
2019-02-11T23:14:43.398Z,3.70
2019-02-11T23:17:14.631Z,3.70
2019-02-11T23:19:46.302Z,3.70
2019-02-11T23:22:17.535Z,3.70
2019-02-11T23:24:49.029Z,3.80
2019-02-11T23:27:21.209Z,3.80
2019-02-11T23:29:52.912Z,3.80
2019-02-11T23:32:24.618Z,3.80
2019-02-11T23:34:56.311Z,3.80
2019-02-11T23:37:27.788Z,3.80
2019-02-11T23:39:59.286Z,3.90
2019-02-11T23:42:31.398Z,3.80
2019-02-11T23:45:03.076Z,3.80
2019-02-11T23:47:34.794Z,3.80
2019-02-11T23:50:06.092Z,3.80
2019-02-11T23:52:37.561Z,3.70
2019-02-11T23:55:09.285Z,3.70
2019-02-11T23:57:40.524Z,3.60
